Time;durP1;ratioP1;P1;durP2;ratioP2;P2;SDS_P1;SDS_P2;PMS_P1;PMS_P2;Temp;Humidity;BMP_temperature;BMP_pressure;BME280_temperature;BME280_humidity;BME280_pressure;Samples;Min_cycle;Max_cycle;Signal;HPM_P1;HPM_P2
2023/07/14 00:00:11;;;;;;;3.67;2.33;;;14.80;98.70;;;;;;4992210;28;20460;-68
2023/07/14 00:02:38;;;;;;;1.80;1.67;;;14.80;98.90;;;;;;4992076;28;20487;-68
2023/07/14 00:05:05;;;;;;;2.00;1.90;;;14.80;99.00;;;;;;4991904;28;20476;-68
2023/07/14 00:07:32;;;;;;;2.27;2.10;;;14.80;99.20;;;;;;4991738;28;20534;-67
2023/07/14 00:09:59;;;;;;;2.47;2.00;;;14.70;99.20;;;;;;4991905;28;20857;-68
2023/07/14 00:12:26;;;;;;;1.67;1.53;;;14.70;99.30;;;;;;4992196;28;20449;-68
2023/07/14 00:14:53;;;;;;;2.20;2.10;;;14.70;99.30;;;;;;4991811;28;20473;-68
2023/07/14 00:17:21;;;;;;;1.50;1.40;;;14.70;99.40;;;;;;4991597;28;20456;-68
2023/07/14 00:19:47;;;;;;;1.87;1.73;;;14.60;99.60;;;;;;4991724;28;20967;-68
2023/07/14 00:22:15;;;;;;;2.20;2.00;;;14.60;99.70;;;;;;4991751;28;20453;-68
2023/07/14 00:24:42;;;;;;;1.90;1.80;;;14.60;99.70;;;;;;4991669;28;20479;-68
2023/07/14 00:27:17;;;;;;;2.03;1.87;;;14.60;99.80;;;;;;4991646;28;20456;-67
2023/07/14 00:29:45;;;;;;;2.03;1.87;;;14.50;99.90;;;;;;4991614;28;20453;-68
2023/07/14 00:32:15;;;;;;;2.03;1.80;;;14.50;99.90;;;;;;4991350;28;20459;-67
2023/07/14 00:34:44;;;;;;;1.60;1.50;;;14.50;99.90;;;;;;4991561;28;20476;-68
2023/07/14 00:37:11;;;;;;;2.40;2.30;;;14.40;99.90;;;;;;4991477;28;20507;-68
2023/07/14 00:39:38;;;;;;;2.10;2.00;;;14.40;99.90;;;;;;4992020;28;20541;-68
2023/07/14 00:42:07;;;;;;;2.37;2.17;;;14.40;99.90;;;;;;4991710;28;20453;-68
2023/07/14 00:44:34;;;;;;;3.37;2.07;;;14.30;99.90;;;;;;4991447;28;20498;-68
2023/07/14 00:47:02;;;;;;;3.20;2.30;;;14.30;99.90;;;;;;4991231;28;20449;-67
2023/07/14 00:49:34;;;;;;;3.30;2.17;;;14.20;99.90;;;;;;4991582;28;20448;-68
2023/07/14 00:52:09;;;;;;;2.33;1.90;;;14.20;99.90;;;;;;4991620;28;20554;-68
2023/07/14 00:54:42;;;;;;;1.63;1.53;;;14.20;99.90;;;;;;4991493;28;20501;-67
2023/07/14 00:57:16;;;;;;;5.17;2.03;;;14.10;99.90;;;;;;4991072;28;20449;-67
2023/07/14 00:59:42;;;;;;;1.70;1.60;;;14.10;99.90;;;;;;4991728;28;20790;-67
2023/07/14 01:02:21;;;;;;;1.93;1.83;;;14.10;99.90;;;;;;4991439;28;20543;-68
2023/07/14 01:04:51;;;;;;;1.83;1.73;;;14.10;99.90;;;;;;4991296;28;20483;-67
2023/07/14 01:07:26;;;;;;;2.30;1.87;;;14.00;99.90;;;;;;4991261;28;20886;-67
2023/07/14 01:09:58;;;;;;;2.20;2.10;;;14.00;99.90;;;;;;4991432;28;20451;-67
2023/07/14 01:12:28;;;;;;;1.97;1.87;;;14.00;99.90;;;;;;4991625;28;20448;-68
2023/07/14 01:14:57;;;;;;;3.00;1.80;;;14.00;99.90;;;;;;4991336;28;20480;-67
2023/07/14 01:17:24;;;;;;;7.50;2.40;;;13.90;99.90;;;;;;4991100;28;20467;-67
2023/07/14 01:19:54;;;;;;;2.23;2.13;;;13.90;99.90;;;;;;4991520;28;20451;-67
2023/07/14 01:22:32;;;;;;;2.53;2.17;;;13.90;99.90;;;;;;4991233;28;20454;-68
2023/07/14 01:25:07;;;;;;;1.80;1.70;;;13.90;99.90;;;;;;4991503;28;20474;-67
2023/07/14 01:27:35;;;;;;;2.30;2.10;;;13.80;99.90;;;;;;4991599;28;20543;-67
2023/07/14 01:30:03;;;;;;;1.70;1.60;;;13.80;99.90;;;;;;4994774;28;20454;-67
2023/07/14 01:32:36;;;;;;;1.80;1.70;;;13.80;99.90;;;;;;4994166;28;20459;-68
2023/07/14 01:35:05;;;;;;;1.83;1.67;;;13.80;99.90;;;;;;4994650;28;21023;-68
2023/07/14 01:37:35;;;;;;;2.10;1.90;;;13.80;99.90;;;;;;4994443;28;20459;-67
2023/07/14 01:40:05;;;;;;;3.50;2.07;;;13.80;99.90;;;;;;4994722;28;20486;-68
2023/07/14 01:42:33;;;;;;;2.37;1.70;;;13.70;99.90;;;;;;4994585;28;20479;-68
2023/07/14 01:45:01;;;;;;;3.70;2.10;;;13.70;99.90;;;;;;4994473;28;20855;-67
2023/07/14 01:47:30;;;;;;;2.47;2.17;;;13.70;99.90;;;;;;4994121;28;20491;-68
2023/07/14 01:50:00;;;;;;;2.73;2.50;;;13.70;99.90;;;;;;4994499;28;20488;-68
2023/07/14 01:52:31;;;;;;;2.90;2.13;;;13.60;99.90;;;;;;4994547;28;20535;-68
2023/07/14 01:55:01;;;;;;;2.00;1.57;;;13.60;99.90;;;;;;4994123;28;20494;-67
2023/07/14 01:57:30;;;;;;;1.77;1.67;;;13.60;99.90;;;;;;4993943;28;20452;-68
2023/07/14 02:00:04;;;;;;;2.60;1.67;;;13.50;99.90;;;;;;4994362;28;20801;-68
2023/07/14 02:02:34;;;;;;;2.10;2.00;;;13.50;99.90;;;;;;4994187;28;20942;-67
2023/07/14 02:05:06;;;;;;;4.40;2.63;;;13.50;99.90;;;;;;4994188;28;20832;-67
2023/07/14 02:07:34;;;;;;;2.17;2.07;;;13.40;99.90;;;;;;4994047;28;20478;-67
2023/07/14 02:10:00;;;;;;;2.13;2.03;;;13.40;99.90;;;;;;4994151;28;20486;-67
2023/07/14 02:12:30;;;;;;;2.50;1.97;;;13.40;99.90;;;;;;4994202;28;20826;-68
2023/07/14 02:15:02;;;;;;;2.30;2.10;;;13.40;99.90;;;;;;4994031;28;20495;-68
2023/07/14 02:17:33;;;;;;;1.80;1.70;;;13.40;99.90;;;;;;4993661;28;20490;-67
2023/07/14 02:20:03;;;;;;;2.20;2.00;;;13.30;99.90;;;;;;4994010;28;21000;-67
2023/07/14 02:22:30;;;;;;;1.97;1.77;;;13.30;99.90;;;;;;4993815;28;20531;-67
2023/07/14 02:24:58;;;;;;;2.50;2.40;;;13.30;99.90;;;;;;4993954;28;20470;-68
2023/07/14 02:27:25;;;;;;;2.47;2.03;;;13.30;99.90;;;;;;4993554;28;20495;-67
2023/07/14 02:29:52;;;;;;;2.00;1.80;;;13.30;99.90;;;;;;4993821;28;20452;-68
2023/07/14 02:32:26;;;;;;;4.13;3.73;;;13.30;99.90;;;;;;4993092;28;20465;-68
2023/07/14 02:34:58;;;;;;;3.80;3.27;;;13.20;99.90;;;;;;4993722;28;20490;-67
2023/07/14 02:38:00;;;;;;;2.70;1.70;;;13.20;99.90;;;;;;4993290;28;20939;-68
2023/07/14 02:40:30;;;;;;;2.13;2.03;;;13.20;99.90;;;;;;4993588;28;20446;-68
2023/07/14 02:42:57;;;;;;;2.30;2.00;;;13.20;99.90;;;;;;4993241;28;20951;-67
2023/07/14 02:45:26;;;;;;;3.53;2.00;;;13.20;99.90;;;;;;4993612;28;20467;-68
2023/07/14 02:47:57;;;;;;;2.00;1.90;;;13.10;99.90;;;;;;4993215;28;20458;-68
2023/07/14 02:50:24;;;;;;;2.00;1.50;;;13.10;99.90;;;;;;4993297;28;20491;-67
2023/07/14 02:52:51;;;;;;;2.43;2.03;;;13.10;99.90;;;;;;4993321;28;20443;-67
2023/07/14 02:55:17;;;;;;;4.87;2.27;;;13.10;99.90;;;;;;4992848;28;20516;-68
2023/07/14 02:57:44;;;;;;;1.90;1.80;;;13.10;99.90;;;;;;4992765;28;20457;-67
2023/07/14 03:00:12;;;;;;;2.23;2.03;;;13.10;99.90;;;;;;4993119;28;20453;-68
2023/07/14 03:02:39;;;;;;;2.60;2.23;;;13.00;99.90;;;;;;4992954;28;20450;-67
2023/07/14 03:05:11;;;;;;;2.10;1.90;;;13.00;99.90;;;;;;4993144;28;20470;-67
2023/07/14 03:07:38;;;;;;;2.37;2.17;;;13.00;99.90;;;;;;4992706;28;20509;-68
2023/07/14 03:10:06;;;;;;;4.97;3.40;;;13.00;99.90;;;;;;4992869;28;20451;-67
2023/07/14 03:12:33;;;;;;;2.20;2.00;;;13.00;99.90;;;;;;4991653;28;20448;-67
2023/07/14 03:15:00;;;;;;;2.57;2.37;;;13.00;99.90;;;;;;4992615;28;20497;-68
2023/07/14 03:17:26;;;;;;;2.67;2.47;;;12.90;99.90;;;;;;4992398;28;20455;-67
2023/07/14 03:19:53;;;;;;;2.07;1.97;;;12.90;99.90;;;;;;4992765;28;20452;-68
2023/07/14 03:22:23;;;;;;;1.93;1.83;;;12.90;99.90;;;;;;4992729;28;20462;-67
2023/07/14 03:24:49;;;;;;;2.50;2.30;;;12.90;99.90;;;;;;4992701;28;20464;-68
2023/07/14 03:27:16;;;;;;;2.07;1.80;;;12.90;99.90;;;;;;4992232;28;20482;-67
2023/07/14 03:29:43;;;;;;;2.50;2.07;;;12.80;99.90;;;;;;4992380;28;20521;-67
2023/07/14 03:32:13;;;;;;;3.20;1.97;;;12.80;99.90;;;;;;4991823;28;20462;-68
2023/07/14 03:34:40;;;;;;;2.90;2.47;;;12.70;99.90;;;;;;4992907;28;20499;-67
2023/07/14 03:37:07;;;;;;;6.07;2.37;;;12.80;99.90;;;;;;4992187;28;20459;-67
2023/07/14 03:39:35;;;;;;;2.57;2.37;;;12.70;99.90;;;;;;4992649;28;20456;-67
2023/07/14 03:42:02;;;;;;;2.60;2.40;;;12.70;99.90;;;;;;4992601;28;20833;-67
2023/07/14 03:44:31;;;;;;;2.33;2.20;;;12.70;99.90;;;;;;4992212;28;20479;-67
2023/07/14 03:46:58;;;;;;;2.13;1.90;;;12.70;99.90;;;;;;4991877;28;20959;-67
2023/07/14 03:49:26;;;;;;;2.67;1.70;;;12.70;99.90;;;;;;4992122;28;20458;-66
2023/07/14 03:51:53;;;;;;;2.33;2.20;;;12.70;99.90;;;;;;4991660;28;20454;-67
2023/07/14 03:54:20;;;;;;;2.33;2.13;;;12.70;99.90;;;;;;4991785;28;20537;-67
2023/07/14 03:56:48;;;;;;;2.43;1.90;;;12.70;99.90;;;;;;4991896;28;20494;-68
2023/07/14 03:59:15;;;;;;;2.70;2.03;;;12.70;99.90;;;;;;4992213;28;20543;-68
2023/07/14 04:01:42;;;;;;;3.53;2.10;;;12.70;99.90;;;;;;4991716;28;21097;-67
2023/07/14 04:04:09;;;;;;;2.87;2.40;;;12.70;99.90;;;;;;4991679;28;20506;-67
2023/07/14 04:06:35;;;;;;;3.50;2.37;;;12.70;99.90;;;;;;4997832;28;20468;-66
2023/07/14 04:09:03;;;;;;;3.10;2.33;;;12.70;99.90;;;;;;5010372;28;20449;-68
2023/07/14 04:11:30;;;;;;;3.70;2.77;;;12.70;99.90;;;;;;5009572;28;20904;-67
2023/07/14 04:13:58;;;;;;;3.00;2.50;;;12.80;99.90;;;;;;5010089;28;20499;-67
2023/07/14 04:16:25;;;;;;;5.40;2.60;;;12.80;99.90;;;;;;5009366;28;20485;-68
2023/07/14 04:18:52;;;;;;;2.80;2.20;;;12.80;99.90;;;;;;5010183;28;20454;-68
2023/07/14 04:21:24;;;;;;;2.83;2.63;;;12.80;99.90;;;;;;5010567;28;20966;-67
2023/07/14 04:23:51;;;;;;;5.73;2.30;;;12.90;99.90;;;;;;5011091;28;21070;-67
2023/07/14 04:26:17;;;;;;;2.87;2.67;;;13.00;99.90;;;;;;5011115;28;20961;-68
2023/07/14 04:28:44;;;;;;;3.97;2.23;;;13.00;99.90;;;;;;5011334;28;20545;-68
2023/07/14 04:31:12;;;;;;;3.00;2.63;;;13.10;99.90;;;;;;5010723;28;20454;-68
2023/07/14 04:33:39;;;;;;;3.07;2.77;;;13.10;99.90;;;;;;5011199;28;20474;-68
2023/07/14 04:36:06;;;;;;;2.37;2.20;;;13.10;99.90;;;;;;5010970;28;20458;-68
2023/07/14 04:38:33;;;;;;;2.60;2.40;;;13.10;99.90;;;;;;5011077;28;20446;-68
2023/07/14 04:41:00;;;;;;;2.20;2.10;;;13.20;99.90;;;;;;5011477;28;20585;-68
2023/07/14 04:43:27;;;;;;;6.40;2.70;;;13.20;99.90;;;;;;5010836;28;20546;-67
2023/07/14 04:45:54;;;;;;;2.73;2.20;;;13.40;99.90;;;;;;5011213;28;20456;-68
2023/07/14 04:48:23;;;;;;;2.97;2.77;;;13.40;99.90;;;;;;5010972;28;20482;-67
2023/07/14 04:50:51;;;;;;;2.30;2.10;;;13.50;99.90;;;;;;5011296;28;20461;-67
2023/07/14 04:53:19;;;;;;;2.50;2.30;;;13.50;99.90;;;;;;5011131;28;20456;-68
2023/07/14 04:55:47;;;;;;;3.23;3.00;;;13.50;99.90;;;;;;5001842;28;20486;-67
2023/07/14 04:58:16;;;;;;;2.10;2.00;;;13.60;99.90;;;;;;4991314;28;20453;-67
2023/07/14 05:00:45;;;;;;;2.33;2.13;;;13.60;99.90;;;;;;4991485;28;20459;-66
2023/07/14 05:03:12;;;;;;;2.43;2.23;;;13.70;99.90;;;;;;4994894;28;20819;-67
2023/07/14 05:05:40;;;;;;;3.10;2.13;;;13.70;99.90;;;;;;4995426;28;20443;-67
2023/07/14 05:08:08;;;;;;;4.20;3.10;;;13.80;99.90;;;;;;4994293;28;20892;-67
2023/07/14 05:10:37;;;;;;;2.50;2.40;;;13.90;99.90;;;;;;4995334;28;20467;-67
2023/07/14 05:13:05;;;;;;;2.40;2.10;;;13.90;99.90;;;;;;4995194;28;20455;-67
2023/07/14 05:15:32;;;;;;;2.50;2.30;;;14.00;99.90;;;;;;4994976;28;21054;-67
2023/07/14 05:17:59;;;;;;;2.93;2.50;;;14.10;99.90;;;;;;4994874;28;20458;-68
2023/07/14 05:20:26;;;;;;;2.50;2.30;;;14.20;99.90;;;;;;4995265;28;20538;-66
2023/07/14 05:22:55;;;;;;;2.37;2.27;;;14.30;99.90;;;;;;4994993;28;20454;-67
2023/07/14 05:25:22;;;;;;;2.53;2.30;;;14.50;99.90;;;;;;4994899;28;20472;-67
2023/07/14 05:27:49;;;;;;;1.97;1.87;;;14.60;99.90;;;;;;4994528;28;20456;-67
2023/07/14 05:30:18;;;;;;;6.63;2.50;;;14.70;99.90;;;;;;4994826;28;20461;-67
2023/07/14 05:32:46;;;;;;;2.53;2.33;;;14.80;99.90;;;;;;4994947;28;20834;-67
2023/07/14 05:35:13;;;;;;;1.97;1.77;;;14.90;99.90;;;;;;4994555;28;20839;-67
2023/07/14 05:37:40;;;;;;;2.60;2.30;;;15.00;99.90;;;;;;4994176;28;20474;-67
2023/07/14 05:40:10;;;;;;;2.30;2.10;;;15.20;99.90;;;;;;4994749;28;20536;-67
2023/07/14 05:42:38;;;;;;;3.10;2.43;;;15.30;99.90;;;;;;4994603;28;20494;-67
2023/07/14 05:45:05;;;;;;;2.50;2.40;;;15.50;99.90;;;;;;4994561;28;20473;-67
2023/07/14 05:47:36;;;;;;;3.20;2.33;;;15.70;99.90;;;;;;4994253;28;20539;-67
2023/07/14 05:50:04;;;;;;;2.60;2.40;;;15.90;99.90;;;;;;4994483;28;20456;-68
2023/07/14 05:52:31;;;;;;;3.00;2.40;;;16.10;99.90;;;;;;4994142;28;20497;-67
2023/07/14 05:54:57;;;;;;;3.90;3.10;;;16.30;99.90;;;;;;4994012;28;20499;-68
2023/07/14 05:57:26;;;;;;;6.07;3.20;;;16.60;99.90;;;;;;4994197;28;20457;-67
2023/07/14 05:59:53;;;;;;;3.33;3.13;;;16.80;99.90;;;;;;4994604;28;20458;-67
2023/07/14 06:02:20;;;;;;;3.63;3.20;;;16.90;99.90;;;;;;4994390;28;20462;-68
2023/07/14 06:04:48;;;;;;;4.00;3.27;;;17.10;99.90;;;;;;4994355;28;20515;-67
2023/07/14 06:07:16;;;;;;;4.00;2.90;;;17.30;99.90;;;;;;4993841;28;20481;-68
2023/07/14 06:09:43;;;;;;;4.87;2.80;;;17.40;99.90;;;;;;4994453;28;20524;-68
2023/07/14 06:12:12;;;;;;;3.00;2.80;;;17.50;99.90;;;;;;4994092;28;20461;-67
2023/07/14 06:14:41;;;;;;;3.83;3.30;;;17.60;99.90;;;;;;4993413;28;20514;-67
2023/07/14 06:17:09;;;;;;;2.80;2.60;;;17.80;99.90;;;;;;4993789;28;20462;-69
2023/07/14 06:19:36;;;;;;;3.57;2.90;;;17.90;99.90;;;;;;4993925;28;20986;-67
2023/07/14 06:22:06;;;;;;;4.03;3.03;;;18.10;99.90;;;;;;4994021;28;20964;-68
2023/07/14 06:24:34;;;;;;;2.93;2.60;;;18.20;99.90;;;;;;4993954;28;20474;-67
2023/07/14 06:27:02;;;;;;;3.03;2.67;;;18.30;99.90;;;;;;4993630;28;20458;-68
2023/07/14 06:29:29;;;;;;;2.83;2.53;;;18.40;99.90;;;;;;4993719;28;20454;-69
2023/07/14 06:31:57;;;;;;;2.60;2.40;;;18.60;99.90;;;;;;4993466;28;20461;-68
2023/07/14 06:34:24;;;;;;;2.93;2.73;;;18.70;99.90;;;;;;4993280;28;20475;-68
2023/07/14 06:36:51;;;;;;;2.90;2.70;;;18.90;99.90;;;;;;4993447;28;20460;-67
2023/07/14 06:39:19;;;;;;;2.80;2.60;;;19.10;99.90;;;;;;4993493;28;20455;-68
2023/07/14 06:41:47;;;;;;;4.93;2.87;;;19.20;99.00;;;;;;4993670;28;20477;-68
2023/07/14 06:44:15;;;;;;;4.77;2.80;;;19.30;98.80;;;;;;4993584;28;20478;-68
2023/07/14 06:46:41;;;;;;;2.77;2.33;;;19.40;98.40;;;;;;4993181;28;20828;-68
2023/07/14 06:49:10;;;;;;;2.87;2.63;;;19.50;98.60;;;;;;4993088;28;20458;-68
2023/07/14 06:51:37;;;;;;;2.93;2.73;;;19.60;98.90;;;;;;4993358;28;20543;-68
2023/07/14 06:54:04;;;;;;;2.80;2.60;;;19.70;98.80;;;;;;4996783;28;20490;-68
2023/07/14 06:56:31;;;;;;;3.13;2.87;;;19.90;98.30;;;;;;5012366;28;21015;-68
2023/07/14 06:58:57;;;;;;;3.07;2.70;;;20.00;98.10;;;;;;5012041;28;20556;-68
2023/07/14 07:01:25;;;;;;;3.17;2.60;;;20.10;97.90;;;;;;5012797;28;20837;-69
2023/07/14 07:03:51;;;;;;;4.00;2.30;;;20.20;97.90;;;;;;5012766;28;20474;-68
2023/07/14 07:06:20;;;;;;;4.00;2.53;;;20.30;97.90;;;;;;5012503;28;20447;-68
2023/07/14 07:08:47;;;;;;;4.23;3.80;;;20.40;97.20;;;;;;5012723;28;20839;-68
2023/07/14 07:11:14;;;;;;;8.97;2.80;;;20.50;97.00;;;;;;5012676;28;20493;-68
2023/07/14 07:13:41;;;;;;;3.30;2.47;;;20.60;97.00;;;;;;5012446;28;20549;-69
2023/07/14 07:16:08;;;;;;;4.70;3.90;;;20.80;96.80;;;;;;5012051;28;20490;-68
2023/07/14 07:18:35;;;;;;;2.43;2.20;;;21.00;95.80;;;;;;5012316;28;20463;-69
2023/07/14 07:21:02;;;;;;;6.67;2.87;;;21.10;95.30;;;;;;5012485;28;20559;-68
2023/07/14 07:23:30;;;;;;;2.43;2.23;;;21.20;94.60;;;;;;5012305;28;20448;-68
2023/07/14 07:25:57;;;;;;;3.63;2.10;;;21.30;94.30;;;;;;5011074;28;20504;-67
2023/07/14 07:28:24;;;;;;;3.70;2.93;;;21.50;94.50;;;;;;5011638;28;20481;-69
2023/07/14 07:30:51;;;;;;;5.00;2.80;;;21.60;93.70;;;;;;5010279;28;20988;-69
2023/07/14 07:33:18;;;;;;;3.60;3.13;;;21.70;92.60;;;;;;5011592;28;20486;-69
2023/07/14 07:35:45;;;;;;;4.30;2.20;;;21.80;92.60;;;;;;5010533;28;20945;-67
2023/07/14 07:38:13;;;;;;;3.00;2.27;;;21.80;92.50;;;;;;5011907;28;20493;-69
2023/07/14 07:40:45;;;;;;;4.40;2.73;;;21.90;92.90;;;;;;5011034;28;20459;-69
2023/07/14 07:43:12;;;;;;;4.87;2.50;;;22.10;91.80;;;;;;5011581;28;20472;-69
2023/07/14 07:45:39;;;;;;;3.40;2.10;;;22.30;91.30;;;;;;5002764;28;20546;-66
2023/07/14 07:48:06;;;;;;;3.00;1.97;;;22.40;91.70;;;;;;5009959;28;20450;-66
2023/07/14 07:50:33;;;;;;;3.60;2.73;;;22.60;91.00;;;;;;5003184;28;20459;-67
2023/07/14 07:53:00;;;;;;;3.10;2.37;;;22.80;91.00;;;;;;5008176;28;20459;-66
2023/07/14 07:55:27;;;;;;;2.17;1.97;;;23.00;89.60;;;;;;5002753;28;20516;-66
2023/07/14 07:57:56;;;;;;;3.90;2.67;;;23.20;88.30;;;;;;5006875;28;20553;-67
2023/07/14 08:00:23;;;;;;;3.00;2.40;;;23.20;89.50;;;;;;5009319;28;20454;-67
2023/07/14 08:02:49;;;;;;;3.03;2.37;;;23.40;89.80;;;;;;5011893;28;20466;-67
2023/07/14 08:05:16;;;;;;;3.30;2.50;;;23.60;89.40;;;;;;5011050;28;20536;-67
2023/07/14 08:07:44;;;;;;;5.20;2.97;;;23.80;88.70;;;;;;5007339;28;20542;-66
2023/07/14 08:10:11;;;;;;;4.00;2.30;;;24.00;88.20;;;;;;5010995;28;20455;-67
2023/07/14 08:12:37;;;;;;;2.20;1.90;;;24.10;87.40;;;;;;5010439;28;20545;-66
2023/07/14 08:15:07;;;;;;;2.97;2.27;;;24.30;82.60;;;;;;5006629;28;21003;-67
2023/07/14 08:17:34;;;;;;;2.30;1.93;;;24.50;83.40;;;;;;4992180;28;20880;-66
2023/07/14 08:20:01;;;;;;;3.03;2.00;;;24.60;80.70;;;;;;5005629;28;20544;-67
2023/07/14 08:22:28;;;;;;;2.90;2.10;;;24.80;77.80;;;;;;5008372;28;20495;-67
2023/07/14 08:24:57;;;;;;;2.00;1.90;;;24.80;76.90;;;;;;5007517;28;20483;-67
2023/07/14 08:27:24;;;;;;;3.33;2.20;;;25.00;78.50;;;;;;5007997;28;20449;-66
2023/07/14 08:29:53;;;;;;;4.17;2.97;;;25.20;77.40;;;;;;5009304;28;20463;-68
2023/07/14 08:32:22;;;;;;;2.37;2.23;;;25.30;74.80;;;;;;5009387;28;20486;-67
2023/07/14 08:34:49;;;;;;;4.33;2.07;;;25.50;74.90;;;;;;5006986;28;20481;-66
2023/07/14 08:37:15;;;;;;;2.37;2.00;;;25.70;72.10;;;;;;5011450;28;20536;-66
2023/07/14 08:39:43;;;;;;;2.10;2.00;;;25.80;71.90;;;;;;5011541;28;20872;-67
2023/07/14 08:42:30;;;;;;;2.93;2.20;;;25.90;69.90;;;;;;5008343;28;20465;-66
2023/07/14 08:45:08;;;;;;;3.40;2.20;;;26.00;69.90;;;;;;5013236;28;20871;-65
2023/07/14 08:47:48;;;;;;;1.60;1.50;;;26.00;69.30;;;;;;5012706;28;20461;-66
2023/07/14 08:50:19;;;;;;;4.13;2.37;;;26.00;66.00;;;;;;5010538;28;20463;-66
2023/07/14 08:52:48;;;;;;;3.23;1.97;;;26.20;68.70;;;;;;5013884;28;20453;-65
2023/07/14 08:55:18;;;;;;;4.60;2.40;;;26.30;64.20;;;;;;5011904;28;20497;-65
2023/07/14 08:57:49;;;;;;;1.70;1.60;;;26.40;66.70;;;;;;5004834;28;20459;-66
2023/07/14 09:00:23;;;;;;;4.87;1.93;;;26.60;67.10;;;;;;4998254;28;20462;-67
2023/07/14 09:03:03;;;;;;;2.77;2.57;;;26.70;61.00;;;;;;5011846;28;20459;-67
2023/07/14 09:05:32;;;;;;;3.40;2.57;;;26.80;63.70;;;;;;5012615;28;20486;-67
2023/07/14 09:07:59;;;;;;;2.37;1.90;;;26.90;64.20;;;;;;4993698;28;20877;-67
2023/07/14 09:10:34;;;;;;;2.23;1.70;;;27.10;63.10;;;;;;5000905;28;20539;-67
2023/07/14 09:13:08;;;;;;;1.97;1.70;;;27.40;63.60;;;;;;5012931;28;20467;-66
2023/07/14 09:15:35;;;;;;;2.50;2.20;;;27.60;59.20;;;;;;5012898;28;21046;-67
2023/07/14 09:18:30;;;;;;;3.80;2.00;;;27.60;59.00;;;;;;5004068;28;20462;-65
2023/07/14 09:21:09;;;;;;;3.03;1.77;;;27.60;60.50;;;;;;5005168;28;20466;-66
2023/07/14 09:23:57;;;;;;;1.97;1.80;;;27.60;59.50;;;;;;4995561;28;20474;-67
2023/07/14 09:26:30;;;;;;;1.60;1.50;;;27.60;61.20;;;;;;5012412;28;20456;-65
2023/07/14 09:28:59;;;;;;;2.33;1.70;;;27.50;57.50;;;;;;4993446;28;20480;-66
2023/07/14 09:31:37;;;;;;;3.73;2.03;;;27.50;58.90;;;;;;4996169;28;20455;-66
2023/07/14 09:34:13;;;;;;;2.80;1.90;;;27.40;58.50;;;;;;4993957;28;20567;-66
2023/07/14 09:36:40;;;;;;;1.97;1.87;;;27.30;58.60;;;;;;4993345;28;20492;-66
2023/07/14 09:39:14;;;;;;;2.93;1.97;;;27.30;58.90;;;;;;5011042;28;20461;-66
2023/07/14 09:41:41;;;;;;;2.13;1.90;;;27.20;58.40;;;;;;5012748;28;20451;-68
2023/07/14 09:44:11;;;;;;;2.50;2.20;;;27.20;59.60;;;;;;5011695;28;20486;-67
2023/07/14 09:46:42;;;;;;;2.37;2.00;;;27.20;57.90;;;;;;5010543;28;20983;-66
2023/07/14 09:49:24;;;;;;;3.37;1.90;;;27.20;58.50;;;;;;5010928;28;20967;-67
2023/07/14 09:52:02;;;;;;;2.23;2.03;;;27.30;59.20;;;;;;5013170;28;20461;-66
2023/07/14 09:54:29;;;;;;;2.10;1.87;;;27.30;58.10;;;;;;4993473;28;20511;-66
2023/07/14 09:57:02;;;;;;;2.30;2.10;;;27.30;57.20;;;;;;4993424;28;20489;-66
2023/07/14 09:59:29;;;;;;;2.93;2.10;;;27.30;57.60;;;;;;5007817;28;20977;-65
2023/07/14 10:02:00;;;;;;;2.43;2.23;;;27.30;57.10;;;;;;5013099;28;20468;-66
2023/07/14 10:04:30;;;;;;;2.07;1.87;;;27.30;57.80;;;;;;5013340;28;20475;-66
2023/07/14 10:07:30;;;;;;;2.27;2.07;;;27.30;57.30;;;;;;5013117;28;20449;-66
2023/07/14 10:09:59;;;;;;;2.13;2.00;;;27.40;57.70;;;;;;5012549;28;20498;-66
2023/07/14 10:12:26;;;;;;;1.93;1.80;;;27.50;55.80;;;;;;4993223;28;20452;-65
2023/07/14 10:14:53;;;;;;;2.70;2.43;;;27.50;56.40;;;;;;5006674;28;20493;-66
2023/07/14 10:17:25;;;;;;;2.20;2.00;;;27.60;56.20;;;;;;5012381;28;20500;-65
2023/07/14 10:19:56;;;;;;;2.07;1.67;;;27.60;56.00;;;;;;5012780;28;20496;-66
2023/07/14 10:22:25;;;;;;;7.77;2.33;;;27.80;56.60;;;;;;5012833;28;20459;-66
2023/07/14 10:24:57;;;;;;;1.83;1.73;;;27.70;57.00;;;;;;5012512;28;20478;-66
2023/07/14 10:27:27;;;;;;;3.10;1.90;;;27.70;56.80;;;;;;5012395;28;20458;-66
2023/07/14 10:30:13;;;;;;;1.73;1.63;;;27.80;56.80;;;;;;5012692;28;20457;-65
2023/07/14 10:32:45;;;;;;;2.20;2.00;;;27.80;56.40;;;;;;5012640;28;20458;-66
2023/07/14 10:35:19;;;;;;;5.00;2.40;;;27.80;55.30;;;;;;5012357;28;20515;-66
2023/07/14 10:37:51;;;;;;;2.93;2.00;;;27.80;54.80;;;;;;5012036;28;21035;-66
2023/07/14 10:40:21;;;;;;;3.33;2.00;;;28.00;56.90;;;;;;5012573;28;20476;-66
2023/07/14 10:42:57;;;;;;;2.70;1.90;;;28.00;55.00;;;;;;5012347;28;20456;-66
2023/07/14 10:45:25;;;;;;;3.80;2.17;;;28.20;55.80;;;;;;5012265;28;20979;-66
2023/07/14 10:47:55;;;;;;;2.77;2.57;;;28.20;55.20;;;;;;5011779;28;20462;-66
2023/07/14 10:50:28;;;;;;;4.53;2.30;;;28.30;54.50;;;;;;5012365;28;20464;-66
2023/07/14 10:53:00;;;;;;;2.80;1.90;;;28.40;55.40;;;;;;5012387;28;20450;-66
2023/07/14 10:55:30;;;;;;;2.53;2.33;;;28.40;53.70;;;;;;5012085;28;20474;-66
2023/07/14 10:58:02;;;;;;;3.70;2.10;;;28.40;55.10;;;;;;5011936;28;20448;-67
2023/07/14 11:00:36;;;;;;;1.80;1.70;;;28.50;53.80;;;;;;5011800;28;20482;-66
2023/07/14 11:03:25;;;;;;;2.70;2.50;;;28.50;54.60;;;;;;5012058;28;20531;-67
2023/07/14 11:05:59;;;;;;;4.97;2.23;;;28.60;54.30;;;;;;5011589;28;20445;-66
2023/07/14 11:08:30;;;;;;;1.57;1.47;;;28.70;53.60;;;;;;5009357;28;20469;-66
2023/07/14 11:11:03;;;;;;;2.20;2.03;;;28.70;53.30;;;;;;5011825;28;20454;-66
2023/07/14 11:13:41;;;;;;;2.70;2.17;;;28.70;53.10;;;;;;5011851;28;20460;-66
2023/07/14 11:16:11;;;;;;;2.20;1.77;;;28.70;53.30;;;;;;5011375;28;20499;-66
2023/07/14 11:18:46;;;;;;;2.00;1.83;;;28.70;50.50;;;;;;5011356;28;20978;-65
2023/07/14 11:21:27;;;;;;;2.00;1.90;;;28.50;50.90;;;;;;5011456;28;20492;-67
2023/07/14 11:24:03;;;;;;;1.83;1.63;;;28.50;50.50;;;;;;5011643;28;20469;-65
2023/07/14 11:26:35;;;;;;;2.53;1.90;;;28.50;50.80;;;;;;4995106;28;20460;-66
2023/07/14 11:29:11;;;;;;;3.40;1.73;;;28.40;50.90;;;;;;5010676;28;20464;-66
2023/07/14 11:31:44;;;;;;;2.07;1.97;;;28.30;50.00;;;;;;5011164;28;20890;-66
2023/07/14 11:34:26;;;;;;;2.50;2.30;;;28.20;51.30;;;;;;5011074;28;21060;-67
2023/07/14 11:37:01;;;;;;;4.07;2.30;;;28.10;51.30;;;;;;5011019;28;20494;-66
2023/07/14 11:39:41;;;;;;;3.23;2.70;;;28.00;49.80;;;;;;5010986;28;20945;-66
2023/07/14 11:42:17;;;;;;;1.67;1.50;;;28.00;50.10;;;;;;5011231;28;20444;-66
2023/07/14 11:44:45;;;;;;;2.30;2.10;;;27.90;51.60;;;;;;5011035;28;20479;-66
2023/07/14 11:47:18;;;;;;;2.40;1.93;;;28.00;52.30;;;;;;5010691;28;20555;-67
2023/07/14 11:49:45;;;;;;;2.90;2.50;;;28.10;53.40;;;;;;5010613;28;20826;-65
2023/07/14 11:52:21;;;;;;;2.10;1.90;;;28.30;52.90;;;;;;5010395;28;20450;-66
2023/07/14 11:54:57;;;;;;;2.07;1.97;;;28.50;51.10;;;;;;5010819;28;20509;-66
2023/07/14 11:57:23;;;;;;;1.80;1.70;;;28.60;49.50;;;;;;5010617;28;20491;-66
2023/07/14 11:59:59;;;;;;;2.63;2.27;;;28.70;50.80;;;;;;5011205;28;20456;-65
2023/07/14 12:02:39;;;;;;;2.20;2.10;;;28.90;51.70;;;;;;5010900;28;20524;-66
2023/07/14 12:05:32;;;;;;;2.30;2.00;;;29.20;51.80;;;;;;5010822;28;21186;-66
2023/07/14 12:08:23;;;;;;;3.53;1.93;;;29.40;50.60;;;;;;5004516;28;20554;-65
2023/07/14 12:10:50;;;;;;;3.07;2.50;;;29.60;50.80;;;;;;4997089;28;21144;-66
2023/07/14 12:13:28;;;;;;;2.13;1.93;;;29.60;49.60;;;;;;5007838;28;20446;-66
2023/07/14 12:16:15;;;;;;;2.70;1.93;;;29.50;48.40;;;;;;5005522;28;20504;-66
2023/07/14 12:19:01;;;;;;;2.20;1.83;;;29.30;47.60;;;;;;4996369;28;20460;-66
2023/07/14 12:21:42;;;;;;;2.17;2.07;;;29.20;49.00;;;;;;5001906;28;20453;-66
2023/07/14 12:24:16;;;;;;;5.40;2.20;;;29.10;50.50;;;;;;5010658;28;20881;-66
2023/07/14 12:26:51;;;;;;;5.23;1.70;;;29.10;49.40;;;;;;5010196;28;20447;-65
2023/07/14 12:29:20;;;;;;;3.23;2.63;;;29.10;49.70;;;;;;5010519;28;20453;-67
2023/07/14 12:31:51;;;;;;;2.50;2.27;;;29.00;48.40;;;;;;5010388;28;20449;-66
2023/07/14 12:34:19;;;;;;;3.33;2.50;;;29.00;48.40;;;;;;5010671;28;20831;-66
2023/07/14 12:36:46;;;;;;;2.37;2.17;;;28.90;49.30;;;;;;5004042;28;20500;-66
2023/07/14 12:39:15;;;;;;;2.63;2.10;;;28.90;48.80;;;;;;5003475;28;20457;-66
2023/07/14 12:41:46;;;;;;;5.67;2.23;;;28.80;49.40;;;;;;5010065;28;20450;-66
2023/07/14 12:44:23;;;;;;;2.70;2.50;;;28.70;49.40;;;;;;5005330;28;20480;-66
2023/07/14 12:46:50;;;;;;;2.60;2.40;;;28.60;48.50;;;;;;5010059;28;20445;-66
2023/07/14 12:49:22;;;;;;;2.50;2.30;;;28.50;48.90;;;;;;5000217;28;20457;-66
2023/07/14 12:51:49;;;;;;;2.30;2.10;;;28.40;49.60;;;;;;5004837;28;20525;-66
2023/07/14 12:54:26;;;;;;;3.40;2.97;;;28.40;50.00;;;;;;5003097;28;20471;-66
2023/07/14 12:56:55;;;;;;;2.70;2.00;;;28.40;50.80;;;;;;5010079;28;20492;-66
2023/07/14 12:59:22;;;;;;;5.03;2.63;;;28.50;51.00;;;;;;5009145;28;20461;-66
2023/07/14 13:01:50;;;;;;;2.33;2.13;;;28.40;49.70;;;;;;5008162;28;20457;-66